createdAt,value
2023-02-13T00:00:51.434Z,3.08
2023-02-13T00:03:19.306Z,3.27
2023-02-13T00:05:47.021Z,3.40
2023-02-13T00:08:14.486Z,3.70
2023-02-13T00:10:42.286Z,4.12
2023-02-13T00:13:10.001Z,3.97
2023-02-13T00:15:37.570Z,4.03
2023-02-13T00:18:05.611Z,4.25
2023-02-13T00:20:33.067Z,4.10
2023-02-13T00:23:00.685Z,3.75
2023-02-13T00:25:29.032Z,3.80
2023-02-13T00:27:56.904Z,4.17
2023-02-13T00:30:24.432Z,4.25
2023-02-13T00:32:52.236Z,4.80
2023-02-13T00:35:19.756Z,5.40
2023-02-13T00:37:47.291Z,5.53
2023-02-13T00:40:15.361Z,5.20
2023-02-13T00:42:42.925Z,5.85
2023-02-13T00:45:10.419Z,5.40
2023-02-13T00:47:38.396Z,5.50
2023-02-13T00:50:06.334Z,4.85
2023-02-13T00:52:33.910Z,4.63
2023-02-13T00:55:01.702Z,5.03
2023-02-13T00:57:31.219Z,4.65
2023-02-13T00:59:59.171Z,4.28
2023-02-13T01:02:27.174Z,3.55
2023-02-13T01:04:55.081Z,3.60
2023-02-13T01:07:22.658Z,3.40
2023-02-13T01:09:50.465Z,3.37
2023-02-13T01:12:18.011Z,3.60
2023-02-13T01:14:45.691Z,3.00
2023-02-13T01:17:13.562Z,3.27
2023-02-13T01:19:41.481Z,4.00
2023-02-13T01:22:09.529Z,6.40
2023-02-13T01:24:37.357Z,4.43
2023-02-13T01:27:04.926Z,3.95
2023-02-13T01:29:32.512Z,3.60
2023-02-13T01:32:05.190Z,4.93
2023-02-13T01:34:33.999Z,5.78
2023-02-13T01:37:01.795Z,4.80
2023-02-13T01:39:29.297Z,4.80
2023-02-13T01:41:57.020Z,3.73
2023-02-13T01:44:48.381Z,4.40
2023-02-13T01:47:41.749Z,4.85
2023-02-13T01:50:16.895Z,4.22
2023-02-13T01:53:04.566Z,4.93
2023-02-13T01:55:35.259Z,5.23
2023-02-13T01:58:14.220Z,4.90
2023-02-13T02:00:43.835Z,4.95
2023-02-13T02:03:16.913Z,4.40
2023-02-13T02:05:45.008Z,4.90
2023-02-13T02:08:15.423Z,4.03
2023-02-13T02:10:43.367Z,8.15
2023-02-13T02:13:18.847Z,6.60
2023-02-13T02:15:48.810Z,5.70
2023-02-13T02:18:19.240Z,4.50
2023-02-13T02:21:08.979Z,3.30
2023-02-13T02:24:01.712Z,4.65
2023-02-13T02:26:46.533Z,3.85
2023-02-13T02:29:49.006Z,3.67
2023-02-13T02:32:25.573Z,3.70
2023-02-13T02:35:02.294Z,4.60
2023-02-13T02:37:45.375Z,3.60
2023-02-13T02:40:27.015Z,3.40
2023-02-13T02:43:15.984Z,3.30
2023-02-13T02:46:23.060Z,3.37
2023-02-13T02:49:33.292Z,3.07
2023-02-13T02:52:18.364Z,3.40
2023-02-13T02:55:06.666Z,3.20
2023-02-13T02:58:04.210Z,4.47
2023-02-13T03:00:55.669Z,4.25
2023-02-13T03:03:44.778Z,4.10
2023-02-13T03:06:47.164Z,3.72
2023-02-13T03:09:42.808Z,4.57
2023-02-13T03:12:32.918Z,3.35
2023-02-13T03:15:00.767Z,4.05
2023-02-13T03:17:46.878Z,3.83
2023-02-13T03:20:59.457Z,3.58
2023-02-13T03:24:00.342Z,3.95
2023-02-13T03:26:33.319Z,4.07
2023-02-13T03:29:45.933Z,5.05
2023-02-13T03:32:31.946Z,4.60
2023-02-13T03:35:39.557Z,4.43
2023-02-13T03:38:28.825Z,4.03
2023-02-13T03:41:19.427Z,4.20
2023-02-13T03:44:09.059Z,3.78
2023-02-13T03:46:42.001Z,3.60
2023-02-13T03:49:36.396Z,4.25
2023-02-13T03:52:09.573Z,4.30
2023-02-13T03:55:07.170Z,4.03
2023-02-13T03:57:57.822Z,3.40
2023-02-13T04:00:33.516Z,3.97
2023-02-13T04:03:11.205Z,5.53
2023-02-13T04:05:47.690Z,4.53
2023-02-13T04:08:15.633Z,4.07
2023-02-13T04:11:18.744Z,4.65
2023-02-13T04:13:52.502Z,4.07
2023-02-13T04:16:28.000Z,3.72
2023-02-13T04:18:57.237Z,4.22
2023-02-13T04:21:24.863Z,4.12
2023-02-13T04:23:52.529Z,3.75
2023-02-13T04:26:22.638Z,3.43
2023-02-13T04:28:50.230Z,4.28
2023-02-13T04:31:17.903Z,4.60
2023-02-13T04:33:45.794Z,3.85
2023-02-13T04:36:13.277Z,4.62
2023-02-13T04:38:40.753Z,4.50
2023-02-13T04:41:08.591Z,4.20
2023-02-13T04:43:36.121Z,4.75
2023-02-13T04:46:03.962Z,4.70
2023-02-13T04:48:31.942Z,4.07
2023-02-13T04:50:59.723Z,3.90
2023-02-13T04:53:27.617Z,4.18
2023-02-13T04:55:55.402Z,4.00
2023-02-13T04:58:22.886Z,4.03
2023-02-13T05:00:50.356Z,4.05
2023-02-13T05:03:18.390Z,3.27
2023-02-13T05:05:45.951Z,3.75
2023-02-13T05:08:13.533Z,3.50
2023-02-13T05:10:41.372Z,3.80
2023-02-13T05:13:09.043Z,3.40
2023-02-13T05:15:36.651Z,3.13
2023-02-13T05:18:04.642Z,3.83
2023-02-13T05:20:32.132Z,4.30
2023-02-13T05:23:29.126Z,3.70
2023-02-13T05:25:56.994Z,3.72
2023-02-13T05:28:43.429Z,3.60
2023-02-13T05:31:11.536Z,3.47
2023-02-13T05:33:39.372Z,3.60
2023-02-13T05:36:07.410Z,3.95
2023-02-13T05:38:35.424Z,3.97
2023-02-13T05:41:03.331Z,3.33
2023-02-13T05:43:30.973Z,4.00
2023-02-13T05:46:09.863Z,3.72
2023-02-13T05:48:37.510Z,3.45
2023-02-13T05:51:05.638Z,3.17
2023-02-13T05:53:37.992Z,3.27
2023-02-13T05:56:06.774Z,2.83
2023-02-13T05:58:35.001Z,2.45
2023-02-13T06:01:03.029Z,2.87
2023-02-13T06:03:32.054Z,2.90
2023-02-13T06:06:00.248Z,3.20
2023-02-13T06:08:27.936Z,2.85
2023-02-13T06:10:55.809Z,2.97
2023-02-13T06:13:24.158Z,2.58
2023-02-13T06:15:51.712Z,3.00
2023-02-13T06:18:19.845Z,2.50
2023-02-13T06:20:47.381Z,3.33
2023-02-13T06:23:15.036Z,3.05
2023-02-13T06:25:42.953Z,2.83
2023-02-13T06:28:10.508Z,6.10
2023-02-13T06:30:38.149Z,6.27
2023-02-13T06:33:06.028Z,4.65
2023-02-13T06:35:33.563Z,4.62
2023-02-13T06:38:01.124Z,4.70
2023-02-13T06:40:28.990Z,5.40
2023-02-13T06:42:56.748Z,4.60
2023-02-13T06:45:24.316Z,4.28
2023-02-13T06:47:52.154Z,4.25
2023-02-13T06:50:19.878Z,3.75
2023-02-13T06:52:48.916Z,5.57
2023-02-13T06:55:17.708Z,5.00
2023-02-13T06:57:45.687Z,5.75
2023-02-13T07:00:16.776Z,5.40
2023-02-13T07:02:46.435Z,6.05
2023-02-13T07:05:14.390Z,8.95
2023-02-13T07:07:42.826Z,8.57
2023-02-13T07:10:13.406Z,6.60
2023-02-13T07:12:40.974Z,5.37
2023-02-13T07:15:09.208Z,6.03
2023-02-13T07:17:37.276Z,5.75
2023-02-13T07:20:06.274Z,4.93
2023-02-13T07:22:33.775Z,4.47
2023-02-13T07:25:01.729Z,5.50
2023-02-13T07:27:29.584Z,4.82
2023-02-13T07:29:57.699Z,5.35
2023-02-13T07:32:26.126Z,5.00
2023-02-13T07:35:01.634Z,5.53
2023-02-13T07:37:31.625Z,4.78
2023-02-13T07:39:59.309Z,4.97
2023-02-13T07:42:26.929Z,5.03
2023-02-13T07:44:54.746Z,5.10
2023-02-13T07:47:22.262Z,5.37
2023-02-13T07:49:49.898Z,5.28
2023-02-13T07:52:17.699Z,5.97
2023-02-13T07:54:48.363Z,5.43
2023-02-13T07:57:17.271Z,5.33
2023-02-13T07:59:45.593Z,6.05
2023-02-13T08:02:14.504Z,5.07
2023-02-13T08:04:49.118Z,5.85
2023-02-13T08:07:18.375Z,5.20
2023-02-13T08:10:05.526Z,4.90
2023-02-13T08:12:36.054Z,5.00
2023-02-13T08:15:04.586Z,5.35
2023-02-13T08:17:32.128Z,5.85
2023-02-13T08:19:59.638Z,6.03
2023-02-13T08:22:27.477Z,5.60
2023-02-13T08:24:55.049Z,6.43
2023-02-13T08:27:23.120Z,7.60
2023-02-13T08:29:51.352Z,7.57
2023-02-13T08:32:19.132Z,6.97
2023-02-13T08:34:46.853Z,7.17
2023-02-13T08:37:14.700Z,7.10
2023-02-13T08:39:42.279Z,6.97
2023-02-13T08:42:10.648Z,5.55
2023-02-13T08:44:41.364Z,5.30
2023-02-13T08:47:09.307Z,4.67
2023-02-13T08:49:36.886Z,4.95
2023-02-13T08:52:05.811Z,4.53
2023-02-13T08:54:35.187Z,4.55
2023-02-13T08:57:02.758Z,4.05
2023-02-13T08:59:30.608Z,3.43
2023-02-13T09:01:58.370Z,3.80
2023-02-13T09:04:25.870Z,4.20
2023-02-13T09:06:53.704Z,3.87
2023-02-13T09:09:21.351Z,4.10
2023-02-13T09:11:50.966Z,3.27
2023-02-13T09:14:18.740Z,3.92
2023-02-13T09:16:46.223Z,4.43
2023-02-13T09:19:13.830Z,3.55
2023-02-13T09:21:41.643Z,4.22
2023-02-13T09:24:10.590Z,4.40
2023-02-13T09:26:38.199Z,3.55
2023-02-13T09:29:06.066Z,3.85
2023-02-13T09:31:33.718Z,4.32
2023-02-13T09:34:01.347Z,4.60
2023-02-13T09:36:29.185Z,4.10
2023-02-13T09:38:57.738Z,3.58
2023-02-13T09:41:28.965Z,3.85
2023-02-13T09:44:33.799Z,3.30
2023-02-13T09:47:10.226Z,3.58
2023-02-13T09:49:44.432Z,3.77
2023-02-13T09:52:12.070Z,2.70
2023-02-13T09:54:40.252Z,3.50
2023-02-13T09:57:18.743Z,4.60
2023-02-13T09:59:57.220Z,3.87
2023-02-13T10:02:47.373Z,3.53
2023-02-13T10:05:34.746Z,3.65
2023-02-13T10:08:18.544Z,4.18
2023-02-13T10:11:01.245Z,3.30
2023-02-13T10:13:42.262Z,4.35
2023-02-13T10:16:17.513Z,4.00
2023-02-13T10:19:03.333Z,4.28
2023-02-13T10:21:36.510Z,4.18
2023-02-13T10:24:18.254Z,4.28
2023-02-13T10:26:47.305Z,4.28
2023-02-13T10:30:04.609Z,4.33
2023-02-13T10:32:52.033Z,4.22
2023-02-13T10:35:24.181Z,3.62
2023-02-13T10:37:56.857Z,4.40
2023-02-13T10:40:32.101Z,3.83
2023-02-13T10:43:10.104Z,3.97
2023-02-13T10:46:03.838Z,4.35
2023-02-13T10:48:37.732Z,4.80
2023-02-13T10:51:24.184Z,5.65
2023-02-13T10:54:19.806Z,4.32
2023-02-13T10:56:56.538Z,4.30
2023-02-13T10:59:47.860Z,4.43
2023-02-13T11:02:23.460Z,4.57
2023-02-13T11:05:19.657Z,4.10
2023-02-13T11:07:50.260Z,4.03
2023-02-13T11:10:23.922Z,3.47
2023-02-13T11:12:52.749Z,3.50
2023-02-13T11:15:23.920Z,3.33
2023-02-13T11:17:53.496Z,3.90
2023-02-13T11:20:44.456Z,3.47
2023-02-13T11:23:32.156Z,3.77
2023-02-13T11:26:17.212Z,3.37
2023-02-13T11:28:55.871Z,4.10
2023-02-13T11:31:30.487Z,3.70
2023-02-13T11:34:00.169Z,3.58
2023-02-13T11:36:27.963Z,3.50
2023-02-13T11:39:05.729Z,3.62
2023-02-13T11:41:40.832Z,3.62
2023-02-13T11:44:20.085Z,3.65
2023-02-13T11:46:53.680Z,3.00
2023-02-13T11:49:25.284Z,4.00
2023-02-13T11:52:01.876Z,3.17
2023-02-13T11:55:05.306Z,3.53
2023-02-13T11:57:37.805Z,3.67
2023-02-13T12:00:41.813Z,3.78
2023-02-13T12:03:22.148Z,4.50
2023-02-13T12:06:06.904Z,4.20
2023-02-13T12:08:39.591Z,4.62
2023-02-13T12:11:25.691Z,4.45
2023-02-13T12:13:53.761Z,4.32
2023-02-13T12:16:45.444Z,4.40
2023-02-13T12:19:17.211Z,4.75
2023-02-13T12:22:09.114Z,4.95
2023-02-13T12:24:36.940Z,4.43
2023-02-13T12:27:07.324Z,5.18
2023-02-13T12:29:53.037Z,4.57
2023-02-13T12:33:08.723Z,4.40
2023-02-13T12:35:56.513Z,4.70
2023-02-13T12:38:38.965Z,5.03
2023-02-13T12:41:25.303Z,5.43
2023-02-13T12:44:08.198Z,4.60
2023-02-13T12:46:44.736Z,5.10
2023-02-13T12:49:40.767Z,4.57
2023-02-13T12:52:27.105Z,4.22
2023-02-13T12:55:17.364Z,5.35
2023-02-13T12:57:54.028Z,4.90
2023-02-13T13:00:48.173Z,5.37
2023-02-13T13:03:48.207Z,5.30
2023-02-13T13:06:49.473Z,4.53
2023-02-13T13:09:38.966Z,4.78
2023-02-13T13:12:15.555Z,4.13
2023-02-13T13:15:31.376Z,4.15
2023-02-13T13:17:59.208Z,4.60
2023-02-13T13:20:26.752Z,4.20
2023-02-13T13:23:04.591Z,3.87
2023-02-13T13:26:02.803Z,3.10
2023-02-13T13:28:36.821Z,3.67
2023-02-13T13:31:06.031Z,3.53
2023-02-13T13:33:35.441Z,3.85
2023-02-13T13:36:40.306Z,3.37
2023-02-13T13:39:31.311Z,3.93
2023-02-13T13:42:20.277Z,3.87
2023-02-13T13:45:21.971Z,3.45
2023-02-13T13:48:35.160Z,3.78
2023-02-13T13:51:03.413Z,3.35
2023-02-13T13:53:31.104Z,3.40
2023-02-13T13:56:10.501Z,3.58
2023-02-13T13:58:45.821Z,3.80
2023-02-13T14:01:25.731Z,3.37
2023-02-13T14:04:04.494Z,3.55
2023-02-13T14:06:47.352Z,3.07
2023-02-13T14:09:27.491Z,3.83
2023-02-13T14:11:56.777Z,3.65
2023-02-13T14:14:27.639Z,3.70
2023-02-13T14:16:58.749Z,3.80
2023-02-13T14:19:29.373Z,3.80
2023-02-13T14:22:24.817Z,3.78
2023-02-13T14:24:59.309Z,4.62
2023-02-13T14:27:37.725Z,4.18
2023-02-13T14:30:24.712Z,4.20
2023-02-13T14:32:52.612Z,3.57
2023-02-13T14:35:35.406Z,3.78
2023-02-13T14:38:08.215Z,4.15
2023-02-13T14:40:50.594Z,3.03
2023-02-13T14:43:20.803Z,4.00
2023-02-13T14:46:13.536Z,4.47
2023-02-13T14:48:49.300Z,4.22
2023-02-13T14:51:28.888Z,5.10
2023-02-13T14:54:06.869Z,4.50
2023-02-13T14:56:37.677Z,4.00
2023-02-13T14:59:14.064Z,4.63
2023-02-13T15:02:22.623Z,4.10
2023-02-13T15:04:54.328Z,4.53
2023-02-13T15:07:27.024Z,4.90
2023-02-13T15:10:23.630Z,4.75
2023-02-13T15:13:02.385Z,4.97
2023-02-13T15:15:34.445Z,4.25
2023-02-13T15:18:12.003Z,4.70
2023-02-13T15:20:43.455Z,4.12
2023-02-13T15:23:26.655Z,4.45
2023-02-13T15:26:03.723Z,4.23
2023-02-13T15:28:33.590Z,4.60
2023-02-13T15:31:05.638Z,4.50
2023-02-13T15:33:48.270Z,3.90
2023-02-13T15:36:20.329Z,3.50
2023-02-13T15:38:48.337Z,4.67
2023-02-13T15:41:22.954Z,3.67
2023-02-13T15:43:56.053Z,3.55
2023-02-13T15:46:38.819Z,3.15
2023-02-13T15:49:10.577Z,3.35
2023-02-13T15:51:38.530Z,4.33
2023-02-13T15:54:21.831Z,3.00
2023-02-13T15:56:51.866Z,3.35
2023-02-13T15:59:21.191Z,3.17
2023-02-13T16:01:51.753Z,3.78
2023-02-13T16:04:21.522Z,3.70
2023-02-13T16:06:52.149Z,3.80
2023-02-13T16:09:27.736Z,3.75
2023-02-13T16:12:00.443Z,3.28
2023-02-13T16:14:31.830Z,3.50
2023-02-13T16:17:08.348Z,3.87
2023-02-13T16:19:56.871Z,4.22
2023-02-13T16:23:13.617Z,3.83
2023-02-13T16:25:41.838Z,3.40
2023-02-13T16:28:24.376Z,3.55
2023-02-13T16:30:55.270Z,3.33
2023-02-13T16:33:28.967Z,2.60
2023-02-13T16:35:59.630Z,3.50
2023-02-13T16:38:42.020Z,3.00
2023-02-13T16:41:30.888Z,2.90
2023-02-13T16:43:59.504Z,2.93
2023-02-13T16:46:39.598Z,2.60
2023-02-13T16:49:07.805Z,2.95
2023-02-13T16:51:51.237Z,3.05
2023-02-13T16:54:27.121Z,3.75
2023-02-13T16:56:58.990Z,3.00
2023-02-13T16:59:48.048Z,3.00
2023-02-13T17:02:19.386Z,3.40
2023-02-13T17:05:09.679Z,3.08
2023-02-13T17:07:43.848Z,3.03
2023-02-13T17:10:23.732Z,3.40
2023-02-13T17:12:51.760Z,3.37
2023-02-13T17:15:22.256Z,3.92
2023-02-13T17:17:53.869Z,3.22
2023-02-13T17:20:25.891Z,4.57
2023-02-13T17:22:55.945Z,3.70
2023-02-13T17:25:32.489Z,3.87
2023-02-13T17:28:24.473Z,3.70
2023-02-13T17:30:54.243Z,3.95
2023-02-13T17:33:25.102Z,3.35
2023-02-13T17:35:53.296Z,3.37
2023-02-13T17:38:21.359Z,3.40
2023-02-13T17:40:49.401Z,3.60
2023-02-13T17:43:19.410Z,3.53
2023-02-13T17:45:47.748Z,3.62
2023-02-13T17:48:15.887Z,3.10
2023-02-13T17:50:43.801Z,3.40
2023-02-13T17:53:26.914Z,3.45
2023-02-13T17:55:54.881Z,2.58
2023-02-13T17:58:22.910Z,3.45
2023-02-13T18:00:50.900Z,3.10
2023-02-13T18:03:18.899Z,3.22
2023-02-13T18:05:50.051Z,3.47
2023-02-13T18:08:17.765Z,2.85
2023-02-13T18:10:45.779Z,3.35
2023-02-13T18:13:13.356Z,3.00
2023-02-13T18:15:43.148Z,3.42
2023-02-13T18:18:12.636Z,3.22
2023-02-13T18:20:40.702Z,2.53
2023-02-13T18:23:08.835Z,2.90
2023-02-13T18:25:36.922Z,2.57
2023-02-13T18:28:04.497Z,3.00
2023-02-13T18:30:32.061Z,2.92
2023-02-13T18:32:59.884Z,2.17
2023-02-13T18:35:27.642Z,2.67
2023-02-13T18:37:55.174Z,2.87
2023-02-13T18:40:23.101Z,2.97
2023-02-13T18:42:52.270Z,2.75
2023-02-13T18:45:19.938Z,2.15
2023-02-13T18:47:47.769Z,2.72
2023-02-13T18:50:15.392Z,2.27
2023-02-13T18:52:42.921Z,1.50
2023-02-13T18:55:10.788Z,2.17
2023-02-13T18:57:43.382Z,2.67
2023-02-13T19:00:14.236Z,3.83
2023-02-13T19:02:41.809Z,3.20
2023-02-13T19:05:09.428Z,3.12
2023-02-13T19:07:37.261Z,3.58
2023-02-13T19:10:05.168Z,3.05
2023-02-13T19:12:32.734Z,2.83
2023-02-13T19:15:00.613Z,2.80
2023-02-13T19:17:28.177Z,2.58
2023-02-13T19:19:55.848Z,2.40
2023-02-13T19:22:23.651Z,2.80
2023-02-13T19:24:51.222Z,2.50
2023-02-13T19:27:18.945Z,2.70
2023-02-13T19:29:47.515Z,2.15
2023-02-13T19:32:15.168Z,2.75
2023-02-13T19:34:42.736Z,2.00
2023-02-13T19:37:10.585Z,3.10
2023-02-13T19:39:38.213Z,3.00
2023-02-13T19:42:05.784Z,2.97
2023-02-13T19:44:33.617Z,2.87
2023-02-13T19:47:01.167Z,2.58
2023-02-13T19:49:28.770Z,2.72
2023-02-13T19:51:56.598Z,3.23
2023-02-13T19:54:24.081Z,2.90
2023-02-13T19:56:51.738Z,3.40
2023-02-13T19:59:19.522Z,4.25
2023-02-13T20:01:47.031Z,3.53
2023-02-13T20:04:14.898Z,2.90
2023-02-13T20:06:42.430Z,3.33
2023-02-13T20:09:12.821Z,3.30
2023-02-13T20:11:41.480Z,3.47
2023-02-13T20:14:14.785Z,3.90
2023-02-13T20:16:45.721Z,3.60
2023-02-13T20:19:14.102Z,4.12
2023-02-13T20:21:42.470Z,3.87
2023-02-13T20:24:11.343Z,3.72
2023-02-13T20:26:40.196Z,3.58
2023-02-13T20:29:08.980Z,3.60
2023-02-13T20:31:37.057Z,3.72
2023-02-13T20:34:06.597Z,3.08
2023-02-13T20:36:34.594Z,3.95
2023-02-13T20:39:05.014Z,3.50
2023-02-13T20:41:34.563Z,3.70
2023-02-13T20:44:08.360Z,3.40
2023-02-13T20:46:37.884Z,3.50
2023-02-13T20:49:06.538Z,4.12
2023-02-13T20:51:35.037Z,3.50
2023-02-13T20:54:03.620Z,3.63
2023-02-13T20:56:31.835Z,3.72
2023-02-13T20:59:00.120Z,3.85
2023-02-13T21:01:33.655Z,3.80
2023-02-13T21:04:01.638Z,3.67
2023-02-13T21:06:31.828Z,3.63
2023-02-13T21:08:59.667Z,3.87
2023-02-13T21:11:28.973Z,3.53
2023-02-13T21:13:57.887Z,3.08
2023-02-13T21:16:28.375Z,3.70
2023-02-13T21:18:59.398Z,3.90
2023-02-13T21:21:30.112Z,3.20
2023-02-13T21:24:01.613Z,3.95
2023-02-13T21:26:30.487Z,3.97
2023-02-13T21:28:59.526Z,3.90
2023-02-13T21:31:35.934Z,4.33
2023-02-13T21:34:10.856Z,4.12
2023-02-13T21:36:40.658Z,3.58
2023-02-13T21:39:11.207Z,3.85
2023-02-13T21:41:44.054Z,4.25
2023-02-13T21:44:14.587Z,4.27
2023-02-13T21:46:43.453Z,3.40
2023-02-13T21:49:17.236Z,3.42
2023-02-13T21:51:45.557Z,3.80
2023-02-13T21:54:13.512Z,3.67
2023-02-13T21:56:42.532Z,3.60
2023-02-13T21:59:15.321Z,3.62
2023-02-13T22:01:50.317Z,3.53
2023-02-13T22:04:18.824Z,3.95
2023-02-13T22:06:51.395Z,3.50
2023-02-13T22:09:20.840Z,3.40
2023-02-13T22:11:51.459Z,3.20
2023-02-13T22:14:20.139Z,3.47
2023-02-13T22:16:50.224Z,3.50
2023-02-13T22:19:17.960Z,3.37
2023-02-13T22:21:46.263Z,4.30
2023-02-13T22:24:13.881Z,3.20
2023-02-13T22:26:43.002Z,3.20
2023-02-13T22:29:13.666Z,3.95
2023-02-13T22:31:41.673Z,3.50
2023-02-13T22:34:12.012Z,3.70
2023-02-13T22:36:40.320Z,2.60
2023-02-13T22:39:09.777Z,3.65
2023-02-13T22:41:37.688Z,3.55
2023-02-13T22:44:05.819Z,3.90
2023-02-13T22:46:34.440Z,3.70
2023-02-13T22:49:02.341Z,3.62
2023-02-13T22:51:36.041Z,3.60
2023-02-13T22:54:04.552Z,3.33
2023-02-13T22:56:32.747Z,3.80
2023-02-13T22:59:02.879Z,3.37
2023-02-13T23:01:30.543Z,3.97
2023-02-13T23:03:58.786Z,4.15
2023-02-13T23:06:27.054Z,4.22
2023-02-13T23:08:55.283Z,3.70
2023-02-13T23:11:44.665Z,3.20
2023-02-13T23:14:12.981Z,3.10
2023-02-13T23:17:01.108Z,3.80
2023-02-13T23:19:30.147Z,3.40
2023-02-13T23:21:58.892Z,3.67
2023-02-13T23:24:26.624Z,3.57
2023-02-13T23:26:54.312Z,3.83
2023-02-13T23:29:22.477Z,3.62
2023-02-13T23:31:50.100Z,3.72
2023-02-13T23:34:17.710Z,3.85
2023-02-13T23:36:45.572Z,3.83
2023-02-13T23:39:13.164Z,3.90
2023-02-13T23:41:40.905Z,3.72
2023-02-13T23:44:08.668Z,3.87
2023-02-13T23:46:36.239Z,4.03
2023-02-13T23:49:05.524Z,3.47
2023-02-13T23:51:34.322Z,4.03
2023-02-13T23:54:01.861Z,3.70
2023-02-13T23:56:29.315Z,4.25
2023-02-13T23:58:57.266Z,3.70
